Terminal Aerodrome Forecast
Issued by NWS Shreveport, LA

Home | Current Version | Previous Version | Text Only | Print | Product List | Glossary On
Versions: 1 2 3 4 5 6 7 8 9 10 11 12
152
FTUS44 KSHV 061133
TAFSHV
TAF
KSHV 061133Z 0612/0712 VRB04KT P6SM SCT050 BKN100
      TEMPO 0614/0618 -RA SCT025 OVC050
     FM062100 VRB04KT P6SM SKC=

USA.gov is the U.S. government's official web portal to all federal, state and local government web resources and services.